Latest Weather Observations for Terrey Hills

IDN60901

Issued at 7:25 pm EST Friday 25 April 2014 (issued every 10 minutes, with the page automatically refreshed every 10 minutes)

About weather observations | Map of Sydney area stations | Latest observations for Sydney area | Other Formats
Station Details ID: 066059 Name: TERREY HILLS AWS Lat: -33.69 Lon: 151.23 Height: 199.0 m
Data from the previous 72 hours. | See also: Recent months at Terrey Hills
Date/Time
EST
Tmp

°C
App
Tmp
°C
Dew
Point
°C
Rel
Hum
%
Delta-T

°C
Wind Press
QNH
hPa
Press
MSL
hPa
Rain
since
9 am
mm
Dir
 
Spd
km/h
Gust
km/h
Spd
kts
Gust
kts
25/07:00pm 15.9 16.4 13.9 88 1.1 NNE 4 9 2 5 - - 6.8
25/06:30pm 15.7 16.2 13.9 89 1.0 NE 4 7 2 4 - - 6.8
25/06:00pm 16.1 16.6 14.1 88 1.1 NNE 4 9 2 5 - - 6.8
25/05:30pm 16.5 16.8 13.4 82 1.8 N 4 9 2 5 - - 6.8
25/05:00pm 17.9 18.8 12.8 72 2.9 CALM 0 0 0 0 - - 6.8
25/04:30pm 19.6 20.6 13.3 67 3.6 CALM 0 0 0 0 - - 6.6
25/04:00pm 19.9 19.6 12.7 63 4.1 NNW 6 9 3 5 - - 6.6
25/03:30pm 19.6 19.7 13.8 69 3.4 N 6 9 3 5 - - 6.6
25/03:00pm 19.5 19.7 14.7 74 2.8 N 7 13 4 7 - - 6.6
25/02:30pm 19.5 19.2 14.5 73 2.9 N 9 17 5 9 - - 6.6
25/02:00pm 18.3 19.0 15.7 85 1.5 NNE 6 15 3 8 - - 6.6
25/01:30pm 18.9 18.8 16.0 83 1.7 ENE 11 20 6 11 - - 6.6
25/01:00pm 18.5 20.2 17.2 92 0.8 ENE 4 7 2 4 - - 6.6
25/12:30pm 17.2 17.8 15.9 92 0.8 NE 7 15 4 8 - - 6.6
25/12:00pm 16.7 17.3 15.9 95 0.5 NNE 7 13 4 7 - - 6.6
25/11:30am 16.5 16.4 15.9 96 0.4 NE 11 19 6 10 - - 6.6
25/11:00am 16.3 17.0 15.7 96 0.4 NNE 6 9 3 5 - - 6.6
25/10:30am 16.2 16.9 15.6 96 0.4 N 6 11 3 6 - - 6.6
25/10:00am 16.3 17.7 15.3 94 0.6 ENE 2 9 1 5 - - 5.4
25/09:30am 16.4 16.7 14.9 91 0.9 SE 7 11 4 6 - - 2.2
25/09:00am 16.8 17.1 15.0 89 1.1 SSE 7 15 4 8 - - 5.2
25/08:30am 16.5 16.9 15.2 92 0.8 SSE 7 15 4 8 - - 5.0
25/08:00am 16.5 16.0 14.9 90 0.9 S 11 20 6 11 - - 2.6
25/07:30am 16.7 17.2 14.9 89 1.0 SE 6 17 3 9 - - 1.6
25/07:00am 17.1 16.0 14.4 84 1.6 SE 13 20 7 11 - - 1.2
25/06:30am 17.7 16.2 14.2 80 2.0 ESE 15 26 8 14 - - 1.2
25/06:00am 18.4 17.2 14.1 76 2.5 SE 13 24 7 13 - - 1.2
25/05:30am 18.4 17.7 14.3 77 2.4 SE 11 28 6 15 - - 1.2
25/05:00am 18.3 17.2 14.2 77 2.4 ESE 13 26 7 14 - - 1.2
25/04:30am 18.3 17.7 14.6 79 2.2 SE 11 22 6 12 - - 1.2
25/04:00am 18.4 17.4 14.7 79 2.2 SE 13 24 7 13 - - 1.2
25/03:30am 18.3 17.3 14.6 79 2.2 SE 13 22 7 12 - - 1.2
25/03:00am 18.2 17.4 15.1 82 1.8 ESE 13 20 7 11 - - 1.2
25/02:30am 18.2 17.5 15.5 84 1.6 SE 13 28 7 15 - - 1.2
25/02:00am 18.2 17.7 16.0 87 1.3 SE 13 22 7 12 - - 1.2
25/01:30am 18.2 17.9 16.4 89 1.1 SE 13 24 7 13 - - 1.2
25/01:00am 18.8 18.8 16.2 85 1.6 SSE 11 20 6 11 - - 0.4
25/12:30am 19.4 18.5 15.9 80 2.1 ESE 15 28 8 15 - - 0.0
25/12:00am 19.4 17.8 16.1 81 2.0 SE 19 35 10 19 - - 0.0
 
Date/Time
EST
Tmp

°C
App
Tmp
°C
Dew
Point
°C
Rel
Hum
%
Delta-T

°C
Wind Press
QNH
hPa
Press
MSL
hPa
Rain
since
9 am
mm
Dir
 
Spd
km/h
Gust
km/h
Spd
kts
Gust
kts
24/11:30pm 19.7 18.0 16.2 80 2.1 ESE 20 32 11 17 - - 0.0
24/11:00pm 19.7 19.0 16.5 82 1.9 SE 15 32 8 17 - - 0.0
24/10:30pm 19.5 18.5 14.5 73 2.9 SSE 13 26 7 14 - - 0.0
24/10:00pm 19.9 17.4 11.1 57 4.9 S 15 39 8 21 - - 0.0
24/09:30pm 20.5 19.7 10.9 54 5.3 S 6 11 3 6 - - 0.0
24/09:00pm 21.1 20.3 10.9 52 5.7 S 6 9 3 5 - - 0.0
24/08:30pm 21.1 20.5 10.3 50 5.9 S 4 7 2 4 - - 0.0
24/08:00pm 21.8 20.6 10.3 48 6.3 S 7 11 4 6 - - 0.0
24/07:30pm 21.8 21.1 11.5 52 5.8 S 6 9 3 5 - - 0.0
24/07:00pm 21.6 20.8 9.5 46 6.6 E 4 6 2 3 - - 0.0
24/06:30pm 23.4 21.2 6.2 33 8.9 SW 7 15 4 8 - - 0.0
24/06:00pm 23.7 21.6 6.5 33 8.9 W 7 9 4 5 - - 0.0
24/05:30pm 24.1 22.8 7.7 35 8.7 WSW 4 7 2 4 - - 0.0
24/05:00pm 25.1 23.9 8.1 34 9.2 W 4 6 2 3 - - 0.0
24/04:30pm 26.8 25.8 8.7 32 9.9 W 4 9 2 5 - - 0.0
24/04:00pm 26.9 25.6 9.3 33 9.8 W 6 11 3 6 - - 0.0
24/03:30pm 26.7 24.6 8.2 31 10.1 W 9 15 5 8 - - 0.0
24/03:00pm 27.1 24.9 8.0 30 10.4 W 9 17 5 9 - - 0.0
24/02:30pm 27.3 24.8 6.7 27 11.0 W 9 17 5 9 - - 0.0
24/02:00pm 28.1 26.0 8.4 29 10.8 WNW 9 17 5 9 - - 0.0
24/01:30pm 28.1 26.0 8.4 29 10.8 NW 9 17 5 9 - - 0.0
24/01:00pm 27.4 25.2 7.8 29 10.6 WNW 9 17 5 9 - - 0.0
24/12:30pm 26.8 24.2 7.8 30 10.3 WNW 11 22 6 12 - - 0.0
24/12:00pm 26.4 24.6 9.3 34 9.5 NW 9 15 5 8 - - 0.0
24/11:30am 25.3 23.8 9.2 36 8.8 NW 7 17 4 9 - - 0.0
24/11:00am 24.2 22.8 9.4 39 8.1 WNW 7 13 4 7 - - 0.0
24/10:30am 23.5 21.3 8.0 37 8.3 WNW 9 15 5 8 - - 0.0
24/10:00am 23.3 21.7 8.6 39 7.9 NW 7 13 4 7 - - 0.0
24/09:30am 22.2 21.0 9.7 45 6.8 NNW 6 11 3 6 - - 0.0
24/09:00am 22.6 20.8 7.2 37 8.0 NW 6 9 3 5 - - 0.0
24/08:30am 21.1 19.3 7.0 40 7.3 WNW 6 11 3 6 - - 0.0
24/08:00am 18.7 17.0 7.5 48 5.7 WNW 6 9 3 5 - - 0.0
24/07:30am 16.5 14.5 7.2 54 4.7 WNW 7 11 4 6 - - 0.0
24/07:00am 15.8 13.7 6.5 54 4.6 WNW 7 13 4 7 - - 0.0
24/06:30am 14.4 12.0 7.0 61 3.6 WNW 9 13 5 7 - - 0.0
24/06:00am 14.5 12.8 7.5 63 3.5 WNW 6 9 3 5 - - 0.0
24/05:30am 15.5 13.7 7.8 60 3.9 NW 7 11 4 6 - - 0.0
24/05:00am 16.5 13.8 7.4 55 4.6 NW 11 19 6 10 - - 0.0
24/04:30am 15.9 14.1 9.3 65 3.4 NW 9 15 5 8 - - 0.0
24/04:00am 15.8 14.1 9.9 68 3.1 NW 9 17 5 9 - - 0.0
24/03:30am 16.3 14.7 10.2 67 3.2 NW 9 15 5 8 - - 0.0
24/03:00am 16.0 14.5 10.7 71 2.8 NW 9 13 5 7 - - 0.0
24/02:30am 16.6 15.2 10.9 69 3.1 NW 9 15 5 8 - - 0.0
24/02:00am 16.1 14.2 10.6 70 2.9 NW 11 15 6 8 - - 0.0
24/01:30am 15.6 13.9 9.9 69 3.0 NW 9 13 5 7 - - 0.0
24/01:00am 16.2 14.5 9.8 66 3.4 NNW 9 15 5 8 - - 0.0
24/12:30am 17.0 14.6 9.9 63 3.8 NNW 13 20 7 11 - - 0.0
24/12:00am 17.4 15.1 10.3 63 3.8 NNW 13 19 7 10 - - 0.0
 
Date/Time
EST
Tmp

°C
App
Tmp
°C
Dew
Point
°C
Rel
Hum
%
Delta-T

°C
Wind Press
QNH
hPa
Press
MSL
hPa
Rain
since
9 am
mm
Dir
 
Spd
km/h
Gust
km/h
Spd
kts
Gust
kts
23/11:30pm 17.5 15.1 11.3 67 3.4 N 15 22 8 12 - - 0.0
23/11:00pm 17.2 15.3 11.9 71 2.9 N 13 19 7 10 - - 0.0
23/10:30pm 17.5 15.3 12.2 71 3.0 N 15 22 8 12 - - 0.0
23/10:00pm 17.8 15.9 12.9 73 2.8 N 15 22 8 12 - - 0.0
23/09:30pm 17.8 15.7 12.5 71 3.0 N 15 20 8 11 - - 0.0
23/09:00pm 18.4 17.1 11.2 63 4.0 N 9 17 5 9 - - 0.0
23/08:30pm 18.5 17.5 11.1 62 4.1 N 7 13 4 7 - - 0.0
23/08:00pm 18.5 17.6 11.3 63 4.0 N 7 13 4 7 - - 0.0
23/07:30pm 18.3 17.7 12.3 68 3.4 N 7 11 4 6 - - 0.0
23/07:00pm 18.2 18.0 13.1 72 2.9 NNE 6 7 3 4 - - 0.0
23/06:30pm 18.3 17.9 12.5 69 3.3 NNE 6 9 3 5 - - 0.0
23/06:00pm 17.5 17.4 12.0 70 3.1 NE 4 7 2 4 - - 0.0
23/05:30pm 17.7 16.9 11.0 65 3.7 ENE 6 7 3 4 - - 0.0
23/05:00pm 18.9 18.1 11.2 61 4.2 E 6 9 3 5 - - 0.0
23/04:30pm 20.2 19.2 10.3 53 5.4 E 6 7 3 4 - - 0.0
23/04:00pm 20.9 19.6 9.8 49 6.0 E 7 11 4 6 - - 0.0
23/03:30pm 21.7 20.5 10.2 48 6.3 E 7 11 4 6 - - 0.0
23/03:00pm 23.6 22.8 8.1 37 8.3 NNW 2 6 1 3 - - 0.0
23/02:30pm 23.7 22.5 8.2 37 8.3 W 4 6 2 3 - - 0.0
23/02:00pm 23.9 22.2 7.5 35 8.7 W 6 9 3 5 - - 0.0
23/01:30pm 23.1 21.9 8.0 38 8.0 W 4 7 2 4 - - 0.0
23/01:00pm 22.8 21.8 8.9 41 7.5 W 4 7 2 4 - - 0.0
23/12:30pm 22.4 21.2 9.6 44 7.0 W 6 9 3 5 - - 0.0
23/12:00pm 22.3 20.9 9.5 44 7.0 WSW 7 13 4 7 - - 0.0
23/11:30am 21.9 20.6 10.1 47 6.5 W 7 9 4 5 - - 0.0
23/11:00am 20.9 19.2 9.8 49 6.0 W 9 15 5 8 - - 0.0
23/10:30am 19.9 19.0 10.6 55 5.1 WNW 6 11 3 6 - - 0.0
23/10:00am 18.7 17.5 10.3 58 4.5 WNW 7 11 4 6 - - 0.0
23/09:30am 17.4 15.9 10.5 64 3.7 W 9 13 5 7 - - 0.0
23/09:00am 16.3 14.6 9.9 66 3.4 W 9 15 5 8 - - 0.0
23/08:30am 16.1 13.9 9.3 64 3.6 W 11 15 6 8 - - 0.0
23/08:00am 15.1 12.7 8.6 65 3.3 WNW 11 13 6 7 - - 0.0
23/07:30am 13.5 11.3 7.9 69 2.8 WNW 9 13 5 7 - - 0.0
23/07:00am 12.7 10.0 7.4 70 2.6 WNW 11 13 6 7 - - 0.0
23/06:30am 12.1 9.7 7.2 72 2.4 WNW 9 13 5 7 - - 0.0
23/06:00am 11.6 9.2 7.1 74 2.2 WNW 9 11 5 6 - - 0.0
23/05:30am 12.4 9.6 7.1 70 2.6 W 11 15 6 8 - - 0.0
23/05:00am 12.1 9.7 7.0 71 2.5 WNW 9 11 5 6 - - 0.0
23/04:30am 13.1 10.7 6.9 66 3.0 WNW 9 11 5 6 - - 0.0
23/04:00am 13.5 11.1 7.1 65 3.1 WNW 9 11 5 6 - - 0.0
23/03:30am 13.7 11.3 7.2 65 3.2 W 9 9 5 5 - - 0.0
23/03:00am 13.1 11.3 7.8 70 2.6 WNW 7 9 4 5 - - 0.0
23/02:30am 13.0 10.9 8.3 73 2.4 WNW 9 11 5 6 - - 0.0
23/02:00am 13.4 11.5 8.9 74 2.3 WNW 9 13 5 7 - - 0.0
23/01:30am 13.3 10.5 8.6 73 2.4 WNW 13 15 7 8 - - 0.0
23/01:00am 14.3 11.8 8.3 67 3.0 W 11 15 6 8 - - 0.0
23/12:30am 15.9 13.3 7.9 59 4.1 W 11 13 6 7 - - 0.0
23/12:00am 16.7 14.2 8.1 57 4.4 W 11 15 6 8 - - 0.0
 
Date/Time
EST
Tmp

°C
App
Tmp
°C
Dew
Point
°C
Rel
Hum
%
Delta-T

°C
Wind Press
QNH
hPa
Press
MSL
hPa
Rain
since
9 am
mm
Dir
 
Spd
km/h
Gust
km/h
Spd
kts
Gust
kts
22/11:30pm 16.8 14.6 7.7 55 4.6 W 9 13 5 7 - - 0.0
22/11:00pm 16.4 14.6 8.1 58 4.2 W 7 11 4 6 - - 0.0
22/10:30pm 16.8 14.7 8.2 57 4.4 W 9 13 5 7 - - 0.0
22/10:00pm 17.0 14.6 8.7 58 4.3 W 11 15 6 8 - - 0.0
22/09:30pm 17.1 15.4 8.5 57 4.5 WNW 7 11 4 6 - - 0.0
22/09:00pm 18.3 16.2 8.3 52 5.2 W 9 15 5 8 - - 0.0
22/08:30pm 18.2 16.5 8.2 52 5.2 WNW 7 11 4 6 - - 0.0
22/08:00pm 18.2 16.6 7.9 51 5.3 WNW 6 9 3 5 - - 0.0
22/07:30pm 18.7 17.1 7.8 49 5.6 NW 6 9 3 5 - - 0.0

Latest Capital City Observations: Canberra | Sydney | Melbourne | Brisbane | Adelaide | Perth | Hobart | Darwin

Other Formats:

Comma delimited format used in spreadsheet applications
http://www.bom.gov.au/fwo/IDN60901/IDN60901.94759.axf

JavaScript Object Notation format (JSON) in row-major order
http://www.bom.gov.au/fwo/IDN60901/IDN60901.94759.json